createdAt,value
2023-01-27T00:01:17.522Z,6.40
2023-01-27T00:03:45.956Z,6.40
2023-01-27T00:06:13.696Z,6.40
2023-01-27T00:08:41.437Z,6.40
2023-01-27T00:11:27.566Z,6.40
2023-01-27T00:13:55.991Z,6.40
2023-01-27T00:16:23.717Z,6.40
2023-01-27T00:18:51.402Z,6.50
2023-01-27T00:21:37.507Z,6.30
2023-01-27T00:24:24.039Z,6.30
2023-01-27T00:26:51.775Z,6.40
2023-01-27T00:29:19.471Z,6.30
2023-01-27T00:32:05.450Z,6.30
2023-01-27T00:34:33.155Z,6.20
2023-01-27T00:37:00.884Z,6.20
2023-01-27T00:39:28.782Z,6.00
2023-01-27T00:41:56.471Z,6.00
2023-01-27T00:44:24.246Z,6.00
2023-01-27T00:46:52.035Z,5.90
2023-01-27T00:49:19.863Z,5.80
2023-01-27T00:51:47.761Z,5.90
2023-01-27T00:54:16.516Z,6.00
2023-01-27T00:56:46.950Z,6.00
2023-01-27T00:59:14.699Z,5.90
2023-01-27T01:01:42.468Z,5.90
2023-01-27T01:04:10.206Z,5.80
2023-01-27T01:06:37.952Z,5.90
2023-01-27T01:09:05.780Z,5.80
2023-01-27T01:11:33.546Z,5.80
2023-01-27T01:14:01.329Z,5.80
2023-01-27T01:16:28.991Z,5.90
2023-01-27T01:18:58.559Z,5.90
2023-01-27T01:21:26.747Z,6.00
2023-01-27T01:23:54.464Z,5.90
2023-01-27T01:26:22.574Z,5.90
2023-01-27T01:28:50.509Z,6.00
2023-01-27T01:31:20.212Z,6.00
2023-01-27T01:33:48.639Z,5.90
2023-01-27T01:36:20.598Z,5.90
2023-01-27T01:38:49.151Z,5.90
2023-01-27T01:41:20.636Z,5.80
2023-01-27T01:43:49.696Z,5.90
2023-01-27T01:46:18.987Z,5.90
2023-01-27T01:49:00.371Z,5.80
2023-01-27T01:51:33.114Z,5.90
2023-01-27T01:54:09.621Z,6.00
2023-01-27T01:56:52.977Z,6.00
2023-01-27T01:59:28.968Z,6.10
2023-01-27T02:01:59.934Z,6.10
2023-01-27T02:04:51.538Z,6.10
2023-01-27T02:07:45.203Z,6.00
2023-01-27T02:10:13.492Z,6.10
2023-01-27T02:12:41.329Z,6.10
2023-01-27T02:15:10.630Z,6.10
2023-01-27T02:17:38.903Z,6.10
2023-01-27T02:20:22.124Z,6.10
2023-01-27T02:23:00.584Z,6.00
2023-01-27T02:25:37.450Z,6.10
2023-01-27T02:28:08.365Z,6.00
2023-01-27T02:30:36.183Z,6.00
2023-01-27T02:33:15.984Z,6.00
2023-01-27T02:36:09.540Z,6.00
2023-01-27T02:38:50.518Z,6.10
2023-01-27T02:41:25.228Z,6.10
2023-01-27T02:43:53.710Z,6.10
2023-01-27T02:46:21.855Z,6.20
2023-01-27T02:48:49.679Z,6.20
2023-01-27T02:51:17.704Z,6.00
2023-01-27T02:53:46.468Z,5.80
2023-01-27T02:56:14.347Z,5.90
2023-01-27T02:58:43.367Z,5.90
2023-01-27T03:01:17.937Z,6.00
2023-01-27T03:03:47.637Z,6.00
2023-01-27T03:06:20.324Z,5.90
2023-01-27T03:08:48.674Z,6.00
2023-01-27T03:11:40.124Z,6.00
2023-01-27T03:14:08.894Z,6.00
2023-01-27T03:16:55.226Z,6.00
2023-01-27T03:19:22.986Z,6.00
2023-01-27T03:21:53.962Z,5.90
2023-01-27T03:24:23.328Z,5.90
2023-01-27T03:26:53.235Z,5.90
2023-01-27T03:29:46.611Z,6.00
2023-01-27T03:32:14.876Z,6.00
2023-01-27T03:34:52.804Z,6.00
2023-01-27T03:37:50.671Z,6.00
2023-01-27T03:40:36.951Z,6.00
2023-01-27T03:43:23.148Z,6.00
2023-01-27T03:46:10.200Z,6.00
2023-01-27T03:48:38.470Z,6.00
2023-01-27T03:51:08.701Z,6.00
2023-01-27T03:53:37.367Z,5.90
2023-01-27T03:56:06.315Z,5.90
2023-01-27T03:58:35.972Z,5.90
2023-01-27T04:01:19.151Z,5.90
2023-01-27T04:04:06.085Z,5.90
2023-01-27T04:06:55.415Z,5.90
2023-01-27T04:09:36.604Z,5.90
2023-01-27T04:12:06.737Z,5.90
2023-01-27T04:14:38.974Z,6.00
2023-01-27T04:17:18.758Z,5.90
2023-01-27T04:19:47.865Z,5.90
2023-01-27T04:22:18.259Z,5.90
2023-01-27T04:24:45.982Z,5.70
2023-01-27T04:27:20.491Z,5.70
2023-01-27T04:29:48.302Z,5.60
2023-01-27T04:32:16.114Z,5.50
2023-01-27T04:34:43.866Z,5.50
2023-01-27T04:37:11.591Z,5.50
2023-01-27T04:39:39.530Z,5.50
2023-01-27T04:42:07.237Z,5.50
2023-01-27T04:44:34.869Z,5.40
2023-01-27T04:47:02.574Z,5.50
2023-01-27T04:49:30.195Z,5.40
2023-01-27T04:51:57.854Z,5.40
2023-01-27T04:54:25.736Z,5.50
2023-01-27T04:57:03.751Z,5.40
2023-01-27T04:59:31.508Z,5.30
2023-01-27T05:01:59.631Z,5.50
2023-01-27T05:04:27.455Z,5.40
2023-01-27T05:06:55.312Z,5.40
2023-01-27T05:09:23.124Z,5.50
2023-01-27T05:11:50.843Z,5.60
2023-01-27T05:14:18.690Z,5.60
2023-01-27T05:16:46.438Z,5.50
2023-01-27T05:19:14.121Z,5.50
2023-01-27T05:21:43.445Z,5.50
2023-01-27T05:24:11.740Z,5.60
2023-01-27T05:26:39.565Z,5.60
2023-01-27T05:29:07.241Z,5.70
2023-01-27T05:31:36.608Z,5.70
2023-01-27T05:34:04.534Z,5.80
2023-01-27T05:36:32.349Z,5.80
2023-01-27T05:39:00.246Z,5.60
2023-01-27T05:41:33.143Z,5.60
2023-01-27T05:44:01.044Z,5.60
2023-01-27T05:46:31.204Z,5.60
2023-01-27T05:49:07.273Z,5.60
2023-01-27T05:51:37.797Z,5.60
2023-01-27T05:54:05.831Z,5.60
2023-01-27T05:56:33.842Z,5.60
2023-01-27T05:59:01.576Z,5.60
2023-01-27T06:01:31.915Z,5.50
2023-01-27T06:04:00.174Z,5.60
2023-01-27T06:06:30.116Z,5.60
2023-01-27T06:08:58.452Z,5.70
2023-01-27T06:11:26.480Z,5.70
2023-01-27T06:13:54.470Z,5.60
2023-01-27T06:16:23.707Z,5.50
2023-01-27T06:18:52.028Z,5.60
2023-01-27T06:21:20.777Z,5.60
2023-01-27T06:23:49.608Z,5.60
2023-01-27T06:26:19.346Z,5.60
2023-01-27T06:28:47.753Z,5.60
2023-01-27T06:31:18.692Z,5.70
2023-01-27T06:33:46.682Z,5.60
2023-01-27T06:36:16.880Z,5.70
2023-01-27T06:38:46.130Z,5.60
2023-01-27T06:41:13.894Z,5.60
2023-01-27T06:43:41.701Z,5.60
2023-01-27T06:46:09.619Z,5.60
2023-01-27T06:48:38.254Z,5.60
2023-01-27T06:51:06.286Z,5.50
2023-01-27T06:53:35.089Z,5.50
2023-01-27T06:56:02.867Z,5.50
2023-01-27T06:58:30.735Z,5.50
2023-01-27T07:00:58.826Z,5.60
2023-01-27T07:03:26.972Z,5.60
2023-01-27T07:05:54.689Z,5.60
2023-01-27T07:08:22.404Z,5.60
2023-01-27T07:10:50.169Z,5.60
2023-01-27T07:13:19.047Z,5.60
2023-01-27T07:15:47.041Z,5.70
2023-01-27T07:18:14.828Z,5.70
2023-01-27T07:20:42.701Z,5.70
2023-01-27T07:23:10.980Z,5.70
2023-01-27T07:25:39.552Z,5.70
2023-01-27T07:28:07.284Z,5.80
2023-01-27T07:30:35.511Z,5.80
2023-01-27T07:33:05.258Z,5.80
2023-01-27T07:35:33.014Z,5.80
2023-01-27T07:38:00.905Z,5.90
2023-01-27T07:40:28.837Z,6.00
2023-01-27T07:43:00.977Z,6.00
2023-01-27T07:45:29.748Z,6.10
2023-01-27T07:48:06.006Z,6.10
2023-01-27T07:50:34.525Z,6.10
2023-01-27T07:53:04.563Z,6.10
2023-01-27T07:55:33.496Z,6.10
2023-01-27T07:58:01.400Z,6.20
2023-01-27T08:00:30.395Z,6.20
2023-01-27T08:02:59.727Z,6.30
2023-01-27T08:05:28.944Z,6.30
2023-01-27T08:07:58.716Z,6.20
2023-01-27T08:10:27.090Z,6.30
2023-01-27T08:12:54.797Z,6.40
2023-01-27T08:15:23.522Z,6.50
2023-01-27T08:17:59.016Z,6.60
2023-01-27T08:20:28.000Z,6.60
2023-01-27T08:22:56.314Z,6.60
2023-01-27T08:25:24.507Z,6.70
2023-01-27T08:27:53.683Z,6.80
2023-01-27T08:30:22.055Z,6.80
2023-01-27T08:32:50.313Z,6.80
2023-01-27T08:35:19.556Z,6.80
2023-01-27T08:37:49.015Z,6.90
2023-01-27T08:40:17.477Z,6.80
2023-01-27T08:42:45.443Z,6.70
2023-01-27T08:45:13.596Z,6.80
2023-01-27T08:47:41.428Z,6.90
2023-01-27T08:50:10.060Z,6.90
2023-01-27T08:52:37.802Z,6.90
2023-01-27T08:55:05.742Z,6.90
2023-01-27T08:57:35.784Z,6.90
2023-01-27T09:00:06.954Z,6.90
2023-01-27T09:02:35.553Z,7.00
2023-01-27T09:05:03.476Z,7.00
2023-01-27T09:07:31.635Z,7.00
2023-01-27T09:10:13.204Z,7.00
2023-01-27T09:12:42.910Z,6.90
2023-01-27T09:15:11.803Z,7.10
2023-01-27T09:17:39.614Z,7.10
2023-01-27T09:20:08.550Z,7.20
2023-01-27T09:22:37.998Z,7.30
2023-01-27T09:25:06.739Z,7.20
2023-01-27T09:27:39.508Z,7.20
2023-01-27T09:30:09.992Z,7.20
2023-01-27T09:32:38.270Z,7.20
2023-01-27T09:35:06.581Z,7.20
2023-01-27T09:37:40.161Z,7.20
2023-01-27T09:40:28.355Z,7.20
2023-01-27T09:43:08.035Z,7.10
2023-01-27T09:45:47.769Z,7.10
2023-01-27T09:48:40.594Z,7.20
2023-01-27T09:51:24.594Z,7.20
2023-01-27T09:54:00.459Z,7.20
2023-01-27T09:56:51.607Z,7.10
2023-01-27T09:59:28.081Z,7.30
2023-01-27T10:01:58.772Z,7.30
2023-01-27T10:04:50.048Z,7.40
2023-01-27T10:07:43.410Z,7.40
2023-01-27T10:10:26.613Z,7.40
2023-01-27T10:13:11.869Z,7.50
2023-01-27T10:15:59.837Z,7.50
2023-01-27T10:18:43.343Z,7.40
2023-01-27T10:21:38.231Z,7.30
2023-01-27T10:24:35.416Z,7.30
2023-01-27T10:27:23.389Z,7.40
2023-01-27T10:30:12.597Z,7.50
2023-01-27T10:33:09.312Z,7.40
2023-01-27T10:36:04.150Z,7.50
2023-01-27T10:38:52.542Z,7.60
2023-01-27T10:41:39.785Z,7.60
2023-01-27T10:44:22.688Z,7.60
2023-01-27T10:47:24.376Z,7.70
2023-01-27T10:50:00.280Z,7.80
2023-01-27T10:52:43.958Z,8.10
2023-01-27T10:55:15.024Z,8.30
2023-01-27T10:57:48.105Z,8.60
2023-01-27T11:01:12.929Z,8.80
2023-01-27T11:03:25.819Z,8.80
2023-01-27T11:06:24.630Z,8.70
2023-01-27T11:08:57.123Z,8.60
2023-01-27T11:11:44.818Z,8.60
2023-01-27T11:14:53.186Z,8.60
2023-01-27T11:17:23.610Z,8.80
2023-01-27T11:20:21.531Z,9.00
2023-01-27T11:23:19.336Z,9.10
2023-01-27T11:26:11.255Z,9.20
2023-01-27T11:29:15.882Z,9.40
2023-01-27T11:31:58.818Z,9.40
2023-01-27T11:34:49.360Z,9.40
2023-01-27T11:37:31.180Z,9.50
2023-01-27T11:39:59.221Z,9.40
2023-01-27T11:42:35.438Z,9.40
2023-01-27T11:45:03.397Z,9.70
2023-01-27T11:47:37.045Z,9.80
2023-01-27T11:50:05.941Z,9.90
2023-01-27T11:52:33.815Z,9.80
2023-01-27T11:55:13.576Z,9.50
2023-01-27T11:57:53.653Z,9.60
2023-01-27T12:00:35.142Z,9.70
2023-01-27T12:03:18.335Z,9.80
2023-01-27T12:05:52.766Z,10.00
2023-01-27T12:08:38.683Z,10.20
2023-01-27T12:11:29.732Z,10.40
2023-01-27T12:14:02.901Z,10.60
2023-01-27T12:16:47.914Z,10.50
2023-01-27T12:19:25.486Z,10.40
2023-01-27T12:21:58.219Z,10.40
2023-01-27T12:24:33.371Z,10.40
2023-01-27T12:27:03.468Z,10.50
2023-01-27T12:29:42.198Z,10.40
2023-01-27T12:32:22.309Z,10.40
2023-01-27T12:34:56.605Z,10.40
2023-01-27T12:37:32.132Z,10.50
2023-01-27T12:40:06.734Z,10.50
2023-01-27T12:42:42.236Z,10.60
2023-01-27T12:45:22.216Z,10.40
2023-01-27T12:48:02.522Z,10.30
2023-01-27T12:50:38.336Z,10.60
2023-01-27T12:53:19.181Z,10.80
2023-01-27T12:55:56.596Z,10.60
2023-01-27T12:58:45.110Z,10.30
2023-01-27T13:01:31.248Z,10.70
2023-01-27T13:04:07.127Z,10.80
2023-01-27T13:06:48.915Z,10.90
2023-01-27T13:10:03.018Z,11.10
2023-01-27T13:12:59.231Z,11.20
2023-01-27T13:15:31.259Z,11.00
2023-01-27T13:18:12.051Z,11.10
2023-01-27T13:20:47.243Z,11.00
2023-01-27T13:23:28.034Z,10.90
2023-01-27T13:26:05.401Z,10.80
2023-01-27T13:29:11.414Z,10.80
2023-01-27T13:32:01.636Z,10.70
2023-01-27T13:35:01.590Z,10.80
2023-01-27T13:37:37.456Z,10.60
2023-01-27T13:40:20.579Z,10.30
2023-01-27T13:43:13.678Z,10.60
2023-01-27T13:45:53.931Z,10.50
2023-01-27T13:48:40.298Z,10.50
2023-01-27T13:51:23.005Z,10.50
2023-01-27T13:54:03.492Z,10.20
2023-01-27T13:56:46.414Z,9.90
2023-01-27T13:59:38.185Z,9.80
2023-01-27T14:02:35.317Z,10.00
2023-01-27T14:05:21.251Z,9.90
2023-01-27T14:08:19.278Z,10.00
2023-01-27T14:11:06.278Z,10.20
2023-01-27T14:13:42.538Z,10.20
2023-01-27T14:16:18.686Z,10.00
2023-01-27T14:18:57.536Z,10.00
2023-01-27T14:21:53.831Z,9.90
2023-01-27T14:25:00.284Z,9.70
2023-01-27T14:27:44.894Z,9.80
2023-01-27T14:30:22.809Z,9.70
2023-01-27T14:33:00.457Z,9.60
2023-01-27T14:35:31.074Z,9.60
2023-01-27T14:38:16.704Z,9.60
2023-01-27T14:40:56.607Z,9.50
2023-01-27T14:43:42.385Z,9.20
2023-01-27T14:46:34.543Z,9.10
2023-01-27T14:49:12.403Z,8.90
2023-01-27T14:51:45.555Z,9.10
2023-01-27T14:54:48.357Z,9.20
2023-01-27T14:57:39.198Z,9.20
2023-01-27T15:00:30.594Z,9.20
2023-01-27T15:03:32.963Z,9.30
2023-01-27T15:06:30.871Z,9.20
2023-01-27T15:09:32.502Z,9.20
2023-01-27T15:12:18.817Z,9.00
2023-01-27T15:15:12.647Z,9.00
2023-01-27T15:18:15.762Z,9.10
2023-01-27T15:20:43.647Z,9.00
2023-01-27T15:23:38.638Z,9.00
2023-01-27T15:26:09.365Z,8.80
2023-01-27T15:28:42.790Z,8.80
2023-01-27T15:31:24.087Z,8.60
2023-01-27T15:34:15.289Z,8.40
2023-01-27T15:37:10.892Z,8.50
2023-01-27T15:40:15.569Z,8.20
2023-01-27T15:43:02.719Z,8.30
2023-01-27T15:45:30.662Z,8.30
2023-01-27T15:48:22.553Z,8.30
2023-01-27T15:51:17.295Z,8.30
2023-01-27T15:53:53.892Z,8.30
2023-01-27T15:56:39.388Z,8.30
2023-01-27T15:59:12.060Z,8.30
2023-01-27T16:01:39.827Z,8.20
2023-01-27T16:04:16.203Z,8.00
2023-01-27T16:06:54.526Z,8.00
2023-01-27T16:09:47.191Z,7.80
2023-01-27T16:12:24.320Z,7.90
2023-01-27T16:15:01.145Z,7.70
2023-01-27T16:17:33.718Z,7.60
2023-01-27T16:20:21.106Z,7.60
2023-01-27T16:22:55.645Z,7.60
2023-01-27T16:25:46.269Z,7.60
2023-01-27T16:28:22.862Z,7.60
2023-01-27T16:31:29.793Z,7.60
2023-01-27T16:34:00.589Z,7.40
2023-01-27T16:36:35.059Z,7.30
2023-01-27T16:39:43.488Z,7.30
2023-01-27T16:42:15.662Z,7.30
2023-01-27T16:44:52.155Z,7.20
2023-01-27T16:47:27.946Z,7.10
2023-01-27T16:50:00.138Z,7.10
2023-01-27T16:52:41.761Z,7.20
2023-01-27T16:55:22.223Z,7.10
2023-01-27T16:57:52.509Z,7.00
2023-01-27T17:00:29.776Z,6.80
2023-01-27T17:03:00.825Z,6.80
2023-01-27T17:05:29.276Z,7.00
2023-01-27T17:08:03.960Z,7.00
2023-01-27T17:10:35.582Z,6.90
2023-01-27T17:13:03.581Z,6.80
2023-01-27T17:15:38.250Z,6.80
2023-01-27T17:18:11.537Z,6.70
2023-01-27T17:20:42.896Z,6.70
2023-01-27T17:23:29.303Z,6.60
2023-01-27T17:25:57.524Z,6.60
2023-01-27T17:28:27.750Z,6.60
2023-01-27T17:31:07.454Z,6.60
2023-01-27T17:33:37.363Z,6.50
2023-01-27T17:36:11.395Z,6.50
2023-01-27T17:38:49.425Z,6.40
2023-01-27T17:41:35.893Z,6.50
2023-01-27T17:44:14.473Z,6.50
2023-01-27T17:46:42.246Z,6.40
2023-01-27T17:49:17.229Z,6.40
2023-01-27T17:51:53.648Z,6.40
2023-01-27T17:54:41.595Z,6.40
2023-01-27T17:57:33.256Z,6.40
2023-01-27T18:00:33.684Z,6.10
2023-01-27T18:03:13.614Z,6.00
2023-01-27T18:05:45.092Z,5.80
2023-01-27T18:08:12.763Z,5.70
2023-01-27T18:10:45.355Z,5.70
2023-01-27T18:13:19.133Z,5.60
2023-01-27T18:16:00.073Z,5.60
2023-01-27T18:18:32.857Z,5.60
2023-01-27T18:21:18.944Z,5.70
2023-01-27T18:23:52.945Z,5.60
2023-01-27T18:26:23.558Z,5.70
2023-01-27T18:28:56.770Z,5.70
2023-01-27T18:31:29.888Z,5.80
2023-01-27T18:34:05.001Z,5.90
2023-01-27T18:36:36.164Z,5.90
2023-01-27T18:39:27.742Z,5.80
2023-01-27T18:41:55.758Z,5.70
2023-01-27T18:44:27.408Z,5.80
2023-01-27T18:47:18.473Z,5.80
2023-01-27T18:50:00.433Z,5.60
2023-01-27T18:52:29.460Z,5.30
2023-01-27T18:55:02.786Z,5.30
2023-01-27T18:57:30.594Z,5.50
2023-01-27T18:59:58.328Z,5.70
2023-01-27T19:02:26.101Z,5.90
2023-01-27T19:04:53.935Z,5.80
2023-01-27T19:07:21.571Z,5.50
2023-01-27T19:09:49.328Z,5.40
2023-01-27T19:12:17.008Z,5.40
2023-01-27T19:14:46.716Z,5.40
2023-01-27T19:17:22.762Z,5.30
2023-01-27T19:19:50.573Z,5.40
2023-01-27T19:22:19.926Z,5.40
2023-01-27T19:24:48.917Z,5.40
2023-01-27T19:27:19.123Z,5.30
2023-01-27T19:29:46.972Z,5.30
2023-01-27T19:32:15.517Z,5.30
2023-01-27T19:34:43.258Z,5.50
2023-01-27T19:37:18.442Z,5.50
2023-01-27T19:39:47.064Z,5.60
2023-01-27T19:42:16.039Z,5.60
2023-01-27T19:44:43.759Z,5.70
2023-01-27T19:47:13.437Z,5.70
2023-01-27T19:49:41.846Z,5.70
2023-01-27T19:52:10.222Z,5.70
2023-01-27T19:54:38.013Z,5.60
2023-01-27T19:57:06.435Z,5.50
2023-01-27T19:59:34.155Z,5.50
2023-01-27T20:02:01.898Z,5.50
2023-01-27T20:04:29.857Z,5.50
2023-01-27T20:06:57.565Z,5.50
2023-01-27T20:09:25.226Z,5.40
2023-01-27T20:11:52.912Z,5.40
2023-01-27T20:14:23.653Z,5.40
2023-01-27T20:16:51.812Z,5.50
2023-01-27T20:19:19.527Z,5.50
2023-01-27T20:21:47.583Z,5.50
2023-01-27T20:24:16.720Z,5.50
2023-01-27T20:26:45.372Z,5.40
2023-01-27T20:29:14.233Z,5.30
2023-01-27T20:31:42.313Z,5.30
2023-01-27T20:34:10.103Z,5.40
2023-01-27T20:36:37.829Z,5.20
2023-01-27T20:39:06.007Z,5.10
2023-01-27T20:41:34.007Z,4.90
2023-01-27T20:44:01.699Z,4.70
2023-01-27T20:46:30.598Z,4.50
2023-01-27T20:49:01.281Z,4.50
2023-01-27T20:51:29.031Z,4.50
2023-01-27T20:53:57.938Z,4.50
2023-01-27T20:56:25.593Z,4.40
2023-01-27T20:58:54.447Z,4.30
2023-01-27T21:01:23.705Z,4.20
2023-01-27T21:03:52.036Z,4.30
2023-01-27T21:06:20.342Z,4.30
2023-01-27T21:08:49.372Z,4.40
2023-01-27T21:11:19.729Z,4.30
2023-01-27T21:13:48.297Z,4.30
2023-01-27T21:16:16.099Z,4.30
2023-01-27T21:18:44.295Z,4.30
2023-01-27T21:21:26.970Z,4.30
2023-01-27T21:23:55.392Z,4.30
2023-01-27T21:26:23.395Z,4.30
2023-01-27T21:28:51.210Z,4.30
2023-01-27T21:31:24.471Z,4.20
2023-01-27T21:33:52.272Z,4.30
2023-01-27T21:36:20.010Z,4.30
2023-01-27T21:38:50.584Z,4.30
2023-01-27T21:41:38.416Z,4.40
2023-01-27T21:44:32.448Z,4.40
2023-01-27T21:47:00.310Z,4.40
2023-01-27T21:49:28.135Z,4.40
2023-01-27T21:51:55.820Z,4.20
2023-01-27T21:54:23.519Z,4.20
2023-01-27T21:56:51.200Z,4.10
2023-01-27T21:59:18.962Z,4.10
2023-01-27T22:01:46.672Z,4.10
2023-01-27T22:04:14.406Z,4.20
2023-01-27T22:06:42.073Z,4.20
2023-01-27T22:09:10.298Z,4.20
2023-01-27T22:11:37.993Z,4.20
2023-01-27T22:14:05.710Z,4.20
2023-01-27T22:16:33.601Z,4.10
2023-01-27T22:19:01.447Z,4.10
2023-01-27T22:21:29.390Z,4.20
2023-01-27T22:23:57.135Z,4.10
2023-01-27T22:26:24.858Z,4.10
2023-01-27T22:28:52.524Z,4.20
2023-01-27T22:31:20.213Z,4.00
2023-01-27T22:33:47.940Z,4.00
2023-01-27T22:36:16.005Z,4.10
2023-01-27T22:38:43.642Z,4.00
2023-01-27T22:41:11.432Z,4.00
2023-01-27T22:43:39.142Z,4.00
2023-01-27T22:46:06.872Z,4.10
2023-01-27T22:48:34.776Z,4.10
2023-01-27T22:51:06.358Z,4.20
2023-01-27T22:53:34.092Z,4.30
2023-01-27T22:56:03.437Z,4.20
2023-01-27T22:58:31.955Z,4.20
2023-01-27T23:00:59.799Z,4.20
2023-01-27T23:03:27.692Z,4.20
2023-01-27T23:05:55.297Z,4.30
2023-01-27T23:08:23.256Z,4.30
2023-01-27T23:10:51.367Z,4.30
2023-01-27T23:13:19.075Z,4.20
2023-01-27T23:15:46.778Z,4.20
2023-01-27T23:18:14.480Z,4.20
2023-01-27T23:20:42.830Z,4.20
2023-01-27T23:23:11.252Z,4.30
2023-01-27T23:25:45.275Z,4.30
2023-01-27T23:28:13.885Z,4.30
2023-01-27T23:30:46.089Z,4.40
2023-01-27T23:33:15.527Z,4.30
2023-01-27T23:35:43.283Z,4.30
2023-01-27T23:38:26.341Z,4.40
2023-01-27T23:41:13.750Z,4.60
2023-01-27T23:43:41.495Z,4.70
2023-01-27T23:46:09.339Z,4.80
2023-01-27T23:48:38.651Z,4.70
2023-01-27T23:51:08.793Z,4.70
2023-01-27T23:53:36.513Z,4.70
2023-01-27T23:56:05.246Z,4.70
2023-01-27T23:58:33.191Z,4.70
